Time;durP1;ratioP1;P1;durP2;ratioP2;P2;SDS_P1;SDS_P2;PMS_P1;PMS_P2;Temp;Humidity;BMP_temperature;BMP_pressure;BME280_temperature;BME280_humidity;BME280_pressure;Samples;Min_cycle;Max_cycle;Signal;HPM_P1;HPM_P2
2021/07/07 00:00:24;;;;;;;3.00;1.27;;;21.80;1.00;;;;;;5076623;28;20986;-69
2021/07/07 00:02:51;;;;;;;1.83;1.40;;;21.80;1.00;;;;;;5076860;28;20520;-69
2021/07/07 00:05:21;;;;;;;1.40;1.30;;;21.70;1.00;;;;;;5076704;28;20458;-69
2021/07/07 00:07:48;;;;;;;3.30;1.90;;;21.60;1.00;;;;;;5077120;28;20442;-69
2021/07/07 00:10:18;;;;;;;1.73;1.33;;;21.60;1.00;;;;;;5076176;28;20465;-69
2021/07/07 00:12:49;;;;;;;1.70;1.53;;;21.50;1.00;;;;;;5076567;28;20494;-69
2021/07/07 00:15:19;;;;;;;3.47;1.80;;;21.50;1.00;;;;;;5076389;28;20533;-69
2021/07/07 00:17:46;;;;;;;1.60;1.50;;;21.40;1.00;;;;;;5076564;28;20455;-69
2021/07/07 00:20:15;;;;;;;4.07;1.43;;;21.40;1.00;;;;;;5076651;28;20469;-69
2021/07/07 00:22:42;;;;;;;2.50;1.53;;;21.40;1.00;;;;;;5076321;28;20465;-69
2021/07/07 00:25:10;;;;;;;2.07;1.40;;;21.30;1.00;;;;;;5075868;28;20462;-69
2021/07/07 00:27:37;;;;;;;2.33;1.40;;;21.30;1.00;;;;;;5076003;28;20482;-69
2021/07/07 00:30:07;;;;;;;1.60;1.50;;;21.20;1.00;;;;;;5076135;28;20469;-69
2021/07/07 00:32:34;;;;;;;3.27;1.73;;;21.10;1.00;;;;;;5076283;28;20454;-69
2021/07/07 00:35:00;;;;;;;2.50;1.50;;;21.00;6.70;;;;;;5076309;28;20458;-69
2021/07/07 00:37:27;;;;;;;2.80;1.60;;;21.00;1.00;;;;;;5076263;28;20473;-69
2021/07/07 00:39:54;;;;;;;4.93;1.83;;;20.90;2.10;;;;;;5075967;28;20822;-69
2021/07/07 00:42:20;;;;;;;1.70;1.60;;;20.90;28.80;;;;;;5075801;28;20462;-69
2021/07/07 00:44:47;;;;;;;1.63;1.50;;;20.90;5.40;;;;;;5075694;28;20450;-69
2021/07/07 00:47:15;;;;;;;3.33;1.70;;;20.90;1.00;;;;;;5075463;28;20485;-69
2021/07/07 00:49:42;;;;;;;2.00;1.40;;;20.80;1.00;;;;;;5076045;28;20783;-69
2021/07/07 00:52:10;;;;;;;4.60;1.80;;;20.80;1.00;;;;;;5075492;28;20986;-69
2021/07/07 00:54:37;;;;;;;3.00;1.30;;;20.80;1.00;;;;;;5075913;28;20451;-69
2021/07/07 00:57:04;;;;;;;1.30;1.20;;;20.70;1.00;;;;;;5075573;28;20482;-69
2021/07/07 00:59:33;;;;;;;3.80;1.60;;;20.70;1.00;;;;;;5075815;28;20454;-69
2021/07/07 01:02:02;;;;;;;2.67;1.50;;;20.70;5.50;;;;;;5075808;28;20527;-69
2021/07/07 01:04:31;;;;;;;2.70;1.63;;;20.70;1.00;;;;;;5075718;28;20457;-69
2021/07/07 01:06:59;;;;;;;1.60;1.50;;;20.60;13.60;;;;;;5075846;28;20957;-69
2021/07/07 01:09:26;;;;;;;1.93;1.50;;;20.60;22.00;;;;;;5075529;28;20469;-69
2021/07/07 01:11:52;;;;;;;1.63;1.53;;;20.50;31.40;;;;;;5075971;28;20458;-69
2021/07/07 01:14:19;;;;;;;2.10;1.80;;;20.40;42.90;;;;;;5075598;28;20533;-69
2021/07/07 01:16:46;;;;;;;2.03;1.83;;;20.40;59.10;;;;;;5075809;28;20465;-69
2021/07/07 01:19:13;;;;;;;1.93;1.53;;;20.40;63.10;;;;;;5075316;28;20458;-69
2021/07/07 01:21:46;;;;;;;4.17;1.70;;;20.30;90.00;;;;;;5075362;28;20458;-69
2021/07/07 01:24:13;;;;;;;1.57;1.47;;;20.20;96.80;;;;;;5075417;28;20446;-69
2021/07/07 01:26:40;;;;;;;3.57;1.83;;;20.10;98.50;;;;;;5075034;28;20493;-69
2021/07/07 01:29:08;;;;;;;1.80;1.70;;;20.10;99.90;;;;;;5075263;28;20791;-69
2021/07/07 01:31:35;;;;;;;3.60;1.47;;;20.10;99.90;;;;;;5074896;28;20918;-69
2021/07/07 01:34:01;;;;;;;4.53;1.90;;;19.90;99.90;;;;;;5075129;28;20469;-69
2021/07/07 01:36:28;;;;;;;2.00;1.80;;;19.90;99.90;;;;;;5075008;28;20451;-69
2021/07/07 01:38:56;;;;;;;11.10;2.57;;;19.90;99.90;;;;;;5075108;28;20458;-69
2021/07/07 01:41:25;;;;;;;2.87;1.90;;;19.90;99.90;;;;;;5074795;28;20957;-69
2021/07/07 01:43:53;;;;;;;3.73;1.77;;;19.90;99.90;;;;;;5075376;28;20549;-69
2021/07/07 01:46:20;;;;;;;3.77;1.90;;;19.90;99.90;;;;;;5074638;28;20481;-69
2021/07/07 01:48:47;;;;;;;1.87;1.77;;;19.90;99.90;;;;;;5074659;28;20477;-69
2021/07/07 01:51:13;;;;;;;2.00;1.83;;;19.80;99.90;;;;;;5074640;28;20484;-69
2021/07/07 01:53:40;;;;;;;2.90;2.07;;;19.80;99.90;;;;;;5074999;28;20450;-69
2021/07/07 01:56:08;;;;;;;1.90;1.70;;;19.80;99.90;;;;;;5074162;28;20757;-69
2021/07/07 01:58:35;;;;;;;3.00;1.93;;;19.70;99.90;;;;;;5074705;28;20458;-68
2021/07/07 02:01:02;;;;;;;2.30;2.10;;;19.60;99.90;;;;;;5074511;28;20477;-69
2021/07/07 02:03:28;;;;;;;2.53;2.00;;;19.60;99.90;;;;;;5074702;28;20453;-69
2021/07/07 02:05:55;;;;;;;2.70;2.00;;;19.50;99.90;;;;;;5074767;28;20481;-69
2021/07/07 02:08:22;;;;;;;1.70;1.60;;;19.40;99.90;;;;;;5074751;28;20486;-69
2021/07/07 02:10:48;;;;;;;2.30;2.00;;;19.40;99.90;;;;;;5074402;28;20454;-69
2021/07/07 02:13:16;;;;;;;2.90;2.20;;;19.30;99.90;;;;;;5074698;28;20473;-69
2021/07/07 02:15:43;;;;;;;4.50;2.50;;;19.20;99.90;;;;;;5074344;28;20469;-69
2021/07/07 02:18:12;;;;;;;2.47;2.27;;;19.20;99.90;;;;;;5074532;28;20462;-69
2021/07/07 02:20:41;;;;;;;3.40;2.63;;;19.10;99.90;;;;;;5074709;28;20502;-69
2021/07/07 02:23:08;;;;;;;3.93;2.40;;;19.10;99.90;;;;;;5074578;28;20469;-69
2021/07/07 02:25:42;;;;;;;3.83;2.17;;;19.10;99.90;;;;;;5074470;28;20465;-69
2021/07/07 02:28:09;;;;;;;3.90;1.80;;;19.10;99.90;;;;;;5074498;28;20466;-69
2021/07/07 02:30:41;;;;;;;2.97;2.17;;;19.10;99.90;;;;;;5074536;28;20462;-68
2021/07/07 02:33:11;;;;;;;3.23;2.20;;;19.10;99.90;;;;;;5074946;28;20440;-68
2021/07/07 02:35:41;;;;;;;2.60;2.40;;;19.00;99.90;;;;;;5074503;28;20477;-68
2021/07/07 02:38:10;;;;;;;2.07;1.90;;;19.00;99.90;;;;;;5074302;28;20450;-68
2021/07/07 02:40:38;;;;;;;2.00;1.90;;;18.90;99.90;;;;;;5074402;28;20771;-68
2021/07/07 02:43:06;;;;;;;2.27;2.07;;;18.90;99.90;;;;;;5073997;28;20899;-69
2021/07/07 02:45:34;;;;;;;2.80;2.27;;;19.00;99.90;;;;;;5074451;28;20485;-69
2021/07/07 02:48:03;;;;;;;3.50;2.20;;;19.00;99.90;;;;;;5073661;28;20492;-69
2021/07/07 02:50:29;;;;;;;2.60;2.20;;;18.90;99.90;;;;;;5074239;28;20453;-69
2021/07/07 02:52:56;;;;;;;4.70;2.17;;;18.90;99.90;;;;;;5074164;28;20468;-69
2021/07/07 02:55:23;;;;;;;2.00;1.80;;;18.90;99.90;;;;;;5074178;28;20829;-69
2021/07/07 02:57:57;;;;;;;2.80;1.87;;;18.90;99.90;;;;;;5074004;28;20451;-69
2021/07/07 03:00:30;;;;;;;2.27;2.07;;;18.90;99.90;;;;;;5074154;28;20446;-68
2021/07/07 03:02:58;;;;;;;3.33;2.33;;;18.90;99.90;;;;;;5073898;28;20439;-69
2021/07/07 03:05:27;;;;;;;3.60;2.30;;;18.80;99.90;;;;;;5074238;28;20458;-69
2021/07/07 03:07:54;;;;;;;2.43;2.10;;;18.80;99.90;;;;;;5077879;28;20517;-69
2021/07/07 03:10:20;;;;;;;3.10;2.23;;;18.80;99.90;;;;;;5077731;28;20465;-69
2021/07/07 03:12:48;;;;;;;3.53;2.90;;;18.90;99.90;;;;;;5077782;28;20469;-69
2021/07/07 03:15:15;;;;;;;2.10;2.00;;;18.90;99.90;;;;;;5078106;28;20465;-69
2021/07/07 03:17:42;;;;;;;2.53;2.10;;;19.00;99.90;;;;;;5077523;28;20546;-69
2021/07/07 03:20:10;;;;;;;2.57;2.33;;;19.00;99.90;;;;;;5077414;28;20466;-69
2021/07/07 03:22:38;;;;;;;2.23;2.10;;;19.10;99.90;;;;;;5077584;28;20458;-69
2021/07/07 03:25:06;;;;;;;2.50;2.30;;;19.10;99.90;;;;;;5077374;28;20465;-69
2021/07/07 03:27:33;;;;;;;3.00;2.03;;;19.10;99.90;;;;;;5077577;28;20824;-69
2021/07/07 03:30:00;;;;;;;4.40;2.60;;;19.10;99.90;;;;;;5077878;28;20454;-69
2021/07/07 03:32:26;;;;;;;3.80;3.03;;;19.10;99.90;;;;;;5077710;28;20461;-69
2021/07/07 03:34:53;;;;;;;2.23;2.07;;;19.10;99.90;;;;;;5076919;28;20934;-69
2021/07/07 03:37:20;;;;;;;3.53;2.40;;;19.20;99.90;;;;;;5077057;28;20952;-69
2021/07/07 03:39:48;;;;;;;2.40;2.20;;;19.20;99.90;;;;;;5077098;28;20903;-69
2021/07/07 03:42:17;;;;;;;5.10;2.60;;;19.20;99.90;;;;;;5077218;28;20555;-69
2021/07/07 03:44:43;;;;;;;2.40;2.20;;;19.10;99.90;;;;;;5077090;28;20593;-69
2021/07/07 03:47:11;;;;;;;2.60;2.20;;;19.10;99.90;;;;;;5076631;28;20966;-69
2021/07/07 03:49:38;;;;;;;3.70;2.10;;;19.00;99.90;;;;;;5076563;28;20493;-69
2021/07/07 03:52:05;;;;;;;2.50;2.10;;;19.00;99.90;;;;;;5077104;28;20458;-69
2021/07/07 03:54:32;;;;;;;2.53;2.33;;;19.00;99.90;;;;;;5076804;28;20469;-69
2021/07/07 03:57:00;;;;;;;3.27;2.63;;;19.10;99.90;;;;;;5076482;28;20460;-69
2021/07/07 03:59:27;;;;;;;3.50;2.77;;;19.00;99.90;;;;;;5077077;28;20458;-69
2021/07/07 04:01:54;;;;;;;5.23;2.60;;;19.00;99.90;;;;;;5076862;28;20458;-69
2021/07/07 04:04:20;;;;;;;2.87;2.30;;;19.00;99.90;;;;;;5076719;28;20469;-69
2021/07/07 04:06:47;;;;;;;3.13;2.93;;;19.00;99.90;;;;;;5076726;28;20454;-69
2021/07/07 04:09:14;;;;;;;3.57;2.63;;;18.90;99.90;;;;;;5076549;28;20462;-69
2021/07/07 04:11:41;;;;;;;5.40;2.63;;;18.90;99.90;;;;;;5076678;28;20462;-69
2021/07/07 04:14:10;;;;;;;4.57;2.70;;;18.80;99.90;;;;;;5076754;28;20516;-69
2021/07/07 04:16:36;;;;;;;2.50;2.30;;;18.80;99.90;;;;;;5076610;28;20465;-69
2021/07/07 04:19:04;;;;;;;5.40;2.80;;;18.80;99.90;;;;;;5076092;28;20528;-69
2021/07/07 04:21:30;;;;;;;3.20;2.60;;;18.70;99.90;;;;;;5076640;28;20465;-69
2021/07/07 04:23:57;;;;;;;4.93;3.40;;;18.70;99.90;;;;;;5076578;28;20831;-69
2021/07/07 04:26:24;;;;;;;3.23;2.93;;;18.70;99.90;;;;;;5076907;28;20474;-69
2021/07/07 04:28:53;;;;;;;4.20;3.73;;;18.70;99.90;;;;;;5077390;28;20486;-69
2021/07/07 04:31:23;;;;;;;3.20;2.90;;;18.70;99.90;;;;;;5076624;28;20454;-69
2021/07/07 04:33:50;;;;;;;5.50;3.20;;;18.80;99.90;;;;;;5076079;28;20462;-69
2021/07/07 04:36:16;;;;;;;2.80;2.60;;;18.90;99.90;;;;;;5076376;28;20454;-69
2021/07/07 04:38:43;;;;;;;3.80;3.07;;;18.90;99.90;;;;;;5075798;28;20928;-69
2021/07/07 04:41:10;;;;;;;3.40;2.90;;;19.00;99.90;;;;;;5076188;28;20458;-69
2021/07/07 04:43:37;;;;;;;3.83;2.83;;;19.00;99.90;;;;;;5076002;28;20464;-74
2021/07/07 04:46:03;;;;;;;4.17;2.87;;;19.00;99.90;;;;;;5076213;28;20454;-69
2021/07/07 04:48:33;;;;;;;3.20;2.73;;;18.90;99.90;;;;;;5075831;28;20497;-69
2021/07/07 04:51:00;;;;;;;7.17;4.30;;;18.90;99.90;;;;;;5076115;28;20477;-69
2021/07/07 04:53:26;;;;;;;3.40;2.70;;;18.90;99.90;;;;;;5075841;28;20461;-69
2021/07/07 04:55:53;;;;;;;3.70;3.30;;;18.90;99.90;;;;;;5075917;28;20465;-69
2021/07/07 04:58:20;;;;;;;3.07;2.83;;;18.90;99.90;;;;;;5076083;28;20465;-69
2021/07/07 05:00:47;;;;;;;3.73;2.60;;;18.80;99.90;;;;;;5075567;28;20949;-69
2021/07/07 05:03:13;;;;;;;3.20;2.93;;;18.80;99.90;;;;;;5075584;28;21013;-69
2021/07/07 05:05:41;;;;;;;3.30;3.00;;;18.90;99.90;;;;;;5075775;28;20463;-69
2021/07/07 05:08:08;;;;;;;3.33;2.53;;;18.90;99.90;;;;;;5075256;28;20989;-68
2021/07/07 05:10:35;;;;;;;4.90;3.10;;;18.80;99.90;;;;;;5075716;28;20469;-69
2021/07/07 05:13:04;;;;;;;3.20;2.90;;;18.90;99.90;;;;;;5075650;28;20458;-69
2021/07/07 05:15:34;;;;;;;7.30;3.37;;;18.90;99.90;;;;;;5075648;28;20530;-69
2021/07/07 05:18:01;;;;;;;6.80;3.43;;;18.90;99.90;;;;;;5075445;28;20435;-69
2021/07/07 05:20:28;;;;;;;3.57;3.27;;;18.80;99.90;;;;;;5075979;28;20469;-69
2021/07/07 05:22:56;;;;;;;2.70;2.50;;;18.80;99.90;;;;;;5075326;28;20466;-69
2021/07/07 05:25:23;;;;;;;3.43;3.10;;;18.80;99.90;;;;;;5075817;28;20473;-69
2021/07/07 05:27:49;;;;;;;3.60;2.90;;;18.80;99.90;;;;;;5076856;28;20863;-69
2021/07/07 05:30:20;;;;;;;4.00;3.13;;;18.70;99.90;;;;;;5075031;28;20462;-69
2021/07/07 05:32:46;;;;;;;4.60;3.27;;;18.70;99.90;;;;;;5075441;28;20496;-69
2021/07/07 05:35:14;;;;;;;3.63;2.90;;;18.70;99.90;;;;;;5075895;28;20450;-69
2021/07/07 05:37:41;;;;;;;5.43;2.70;;;18.60;99.90;;;;;;5076222;28;20454;-70
2021/07/07 05:40:10;;;;;;;4.67;2.70;;;18.50;99.90;;;;;;5076206;28;20450;-69
2021/07/07 05:42:37;;;;;;;4.43;2.80;;;18.40;99.90;;;;;;5075980;28;20454;-69
2021/07/07 05:45:05;;;;;;;3.60;3.03;;;18.30;99.90;;;;;;5075199;28;20470;-69
2021/07/07 05:47:31;;;;;;;4.03;3.10;;;18.30;99.90;;;;;;5074947;28;20966;-69
2021/07/07 05:49:58;;;;;;;4.87;3.40;;;18.30;99.90;;;;;;5075414;28;20513;-69
2021/07/07 05:52:26;;;;;;;4.03;2.90;;;18.30;99.90;;;;;;5075061;28;20458;-69
2021/07/07 05:54:55;;;;;;;4.80;3.10;;;18.30;99.90;;;;;;5075287;28;20458;-69
2021/07/07 05:57:45;;;;;;;9.57;3.67;;;18.30;99.90;;;;;;5075401;28;20490;-69
2021/07/07 06:00:14;;;;;;;6.03;3.30;;;18.30;99.90;;;;;;5074408;28;20448;-68
2021/07/07 06:02:43;;;;;;;3.90;3.47;;;18.30;99.90;;;;;;5075898;28;20504;-70
2021/07/07 06:05:11;;;;;;;3.70;3.30;;;18.30;99.90;;;;;;5075142;28;20458;-69
2021/07/07 06:07:39;;;;;;;4.30;3.33;;;18.30;99.90;;;;;;5076145;28;20482;-70
2021/07/07 06:10:08;;;;;;;4.53;3.30;;;18.40;99.90;;;;;;5075874;28;20458;-69
2021/07/07 06:12:36;;;;;;;3.60;3.17;;;18.40;99.90;;;;;;5075385;28;20458;-69
2021/07/07 06:15:03;;;;;;;4.70;3.30;;;18.50;99.90;;;;;;5075299;28;20454;-69
2021/07/07 06:17:30;;;;;;;5.60;3.37;;;18.50;99.90;;;;;;5075088;28;20458;-69
2021/07/07 06:19:57;;;;;;;8.00;3.10;;;18.50;99.90;;;;;;5074942;28;20465;-69
2021/07/07 06:22:23;;;;;;;3.70;3.40;;;18.50;99.90;;;;;;5075555;28;20663;-69
2021/07/07 06:24:50;;;;;;;5.50;3.80;;;18.40;99.90;;;;;;5075752;28;20469;-69
2021/07/07 06:27:17;;;;;;;6.50;4.53;;;18.30;99.90;;;;;;5076731;28;20469;-69
2021/07/07 06:29:45;;;;;;;6.13;4.20;;;18.20;99.90;;;;;;5076564;28;20497;-69
2021/07/07 06:32:13;;;;;;;7.27;3.80;;;18.10;99.90;;;;;;5076912;28;20454;-69
2021/07/07 06:34:40;;;;;;;5.40;4.10;;;18.10;99.90;;;;;;5083256;28;20446;-69
2021/07/07 06:37:09;;;;;;;6.07;4.37;;;18.00;99.90;;;;;;5082464;28;20469;-69
2021/07/07 06:39:36;;;;;;;6.23;4.60;;;17.90;99.90;;;;;;5083239;28;20478;-69
2021/07/07 06:42:04;;;;;;;5.07;4.20;;;17.90;99.90;;;;;;5086369;28;20953;-69
2021/07/07 06:44:30;;;;;;;6.30;3.87;;;17.80;99.90;;;;;;5085725;28;20461;-69
2021/07/07 06:46:58;;;;;;;6.40;4.40;;;17.80;99.90;;;;;;5086263;28;20491;-70
2021/07/07 06:49:25;;;;;;;5.20;3.83;;;17.80;99.90;;;;;;5085901;28;20497;-69
2021/07/07 06:51:52;;;;;;;7.63;3.67;;;17.80;99.90;;;;;;5086419;28;20454;-70
2021/07/07 06:54:19;;;;;;;5.33;3.67;;;17.90;99.90;;;;;;5085167;28;20454;-69
2021/07/07 06:56:45;;;;;;;8.00;3.63;;;17.80;99.90;;;;;;5085836;28;20838;-69
2021/07/07 06:59:12;;;;;;;5.80;4.00;;;17.80;99.90;;;;;;5085453;28;20454;-71
2021/07/07 07:01:39;;;;;;;8.00;3.63;;;17.80;99.90;;;;;;5080459;28;20783;-69
2021/07/07 07:04:07;;;;;;;12.00;4.03;;;17.80;99.90;;;;;;5079402;28;20462;-69
2021/07/07 07:06:35;;;;;;;17.77;4.67;;;17.90;99.90;;;;;;5080386;28;20480;-69
2021/07/07 07:09:02;;;;;;;5.73;3.40;;;17.90;99.90;;;;;;5080566;28;20485;-69
2021/07/07 07:11:29;;;;;;;8.20;4.13;;;18.00;99.90;;;;;;5079884;28;20783;-69
2021/07/07 07:13:56;;;;;;;22.23;5.03;;;18.00;99.90;;;;;;5078583;28;20469;-68
2021/07/07 07:16:24;;;;;;;43.33;4.70;;;18.10;99.90;;;;;;5080045;28;20459;-68
2021/07/07 07:18:51;;;;;;;38.73;6.33;;;18.20;99.90;;;;;;5080854;28;20553;-69
2021/07/07 07:21:19;;;;;;;8.13;4.10;;;18.30;99.90;;;;;;5080791;28;20458;-69
2021/07/07 07:23:46;;;;;;;6.97;3.30;;;18.40;99.90;;;;;;5079799;28;20465;-69
2021/07/07 07:26:12;;;;;;;5.67;3.27;;;18.50;99.90;;;;;;5079282;28;20465;-68
2021/07/07 07:28:39;;;;;;;3.50;3.20;;;18.50;99.90;;;;;;5078886;28;20848;-69
2021/07/07 07:31:06;;;;;;;3.50;3.20;;;18.50;99.90;;;;;;5078275;28;20454;-68
2021/07/07 07:33:32;;;;;;;3.50;3.00;;;18.50;99.90;;;;;;5079005;28;20454;-68
2021/07/07 07:35:59;;;;;;;4.27;3.57;;;18.50;99.90;;;;;;5081613;28;20465;-69
2021/07/07 07:38:29;;;;;;;4.63;3.27;;;18.50;99.90;;;;;;5080498;28;20771;-69
2021/07/07 07:40:56;;;;;;;4.43;2.77;;;18.50;99.90;;;;;;5081181;28;20458;-69
2021/07/07 07:43:23;;;;;;;3.90;3.17;;;18.40;99.90;;;;;;5081756;28;20454;-70
2021/07/07 07:45:51;;;;;;;5.30;3.10;;;18.40;99.90;;;;;;5082066;28;20459;-69
2021/07/07 07:48:18;;;;;;;4.67;3.70;;;18.30;99.90;;;;;;5080463;28;20516;-70
2021/07/07 07:50:45;;;;;;;4.20;3.80;;;18.30;99.90;;;;;;5080138;28;20466;-69
2021/07/07 07:53:12;;;;;;;6.33;3.97;;;18.30;99.90;;;;;;5077462;28;20462;-69
2021/07/07 07:55:41;;;;;;;4.20;3.70;;;18.30;99.90;;;;;;5078371;28;20773;-69
2021/07/07 07:58:07;;;;;;;5.97;3.80;;;18.40;99.90;;;;;;5078866;28;20454;-68
2021/07/07 08:00:34;;;;;;;4.03;3.73;;;18.40;99.90;;;;;;5079385;28;20911;-70
2021/07/07 08:03:01;;;;;;;6.37;3.77;;;18.50;99.90;;;;;;5078112;28;20466;-69
2021/07/07 08:05:27;;;;;;;4.40;4.03;;;18.50;99.90;;;;;;5077688;28;20944;-69
2021/07/07 08:07:57;;;;;;;8.97;3.70;;;18.50;99.90;;;;;;5077491;28;20454;-69
2021/07/07 08:10:24;;;;;;;5.63;3.70;;;18.60;99.90;;;;;;5077912;28;20469;-69
2021/07/07 08:12:53;;;;;;;6.10;3.67;;;18.70;99.90;;;;;;5077480;28;20941;-69
2021/07/07 08:15:20;;;;;;;4.70;3.40;;;18.80;99.90;;;;;;5078177;28;20469;-68
2021/07/07 08:17:47;;;;;;;4.50;4.10;;;18.80;99.90;;;;;;5077465;28;20469;-68
2021/07/07 08:20:15;;;;;;;4.47;3.03;;;18.90;99.90;;;;;;5077853;28;20798;-69
2021/07/07 08:22:42;;;;;;;5.60;3.93;;;19.00;99.90;;;;;;5077974;28;20454;-69
2021/07/07 08:25:10;;;;;;;7.30;3.83;;;19.00;99.90;;;;;;5078965;28;20454;-69
2021/07/07 08:27:37;;;;;;;5.33;3.57;;;19.10;99.90;;;;;;5077664;28;20929;-69
2021/07/07 08:30:08;;;;;;;8.57;4.20;;;19.10;99.90;;;;;;5078103;28;20524;-69
2021/07/07 08:32:35;;;;;;;4.27;3.63;;;19.20;99.90;;;;;;5076777;28;20450;-69
2021/07/07 08:35:02;;;;;;;6.30;3.70;;;19.20;99.90;;;;;;5078786;28;20469;-70
2021/07/07 08:37:29;;;;;;;9.13;3.70;;;19.20;99.90;;;;;;5080026;28;20454;-69
2021/07/07 08:39:56;;;;;;;5.87;3.50;;;19.20;99.90;;;;;;5078658;28;20842;-70
2021/07/07 08:42:23;;;;;;;3.83;3.33;;;19.10;99.90;;;;;;5077920;28;20450;-69
2021/07/07 08:44:49;;;;;;;4.97;3.90;;;19.10;99.90;;;;;;5078015;28;20469;-69
2021/07/07 08:47:18;;;;;;;5.27;3.40;;;19.10;99.90;;;;;;5077674;28;20452;-70
2021/07/07 08:49:44;;;;;;;6.57;3.40;;;19.10;99.90;;;;;;5079751;28;20482;-69
2021/07/07 08:52:11;;;;;;;5.67;3.37;;;19.10;99.90;;;;;;5078781;28;20764;-69
2021/07/07 08:54:38;;;;;;;5.87;3.80;;;19.10;99.90;;;;;;5076550;28;20782;-69
2021/07/07 08:57:08;;;;;;;3.30;3.00;;;19.20;99.90;;;;;;5076523;28;20458;-69
2021/07/07 08:59:35;;;;;;;4.63;2.80;;;19.20;99.90;;;;;;5076009;28;20914;-69
2021/07/07 09:02:07;;;;;;;7.33;2.53;;;19.30;99.90;;;;;;5076774;28;20458;-69
2021/07/07 09:04:37;;;;;;;3.30;2.70;;;19.40;99.90;;;;;;5077310;28;20469;-69
2021/07/07 09:07:05;;;;;;;4.77;3.50;;;19.50;99.90;;;;;;5076718;28;20799;-69
2021/07/07 09:09:41;;;;;;;5.70;2.90;;;19.50;99.90;;;;;;5076647;28;20950;-69
2021/07/07 09:12:17;;;;;;;4.97;2.60;;;19.60;99.90;;;;;;5076748;28;20462;-69
2021/07/07 09:14:45;;;;;;;2.73;2.23;;;19.70;99.90;;;;;;5076107;28;20477;-69
2021/07/07 09:17:13;;;;;;;5.40;2.90;;;19.70;99.90;;;;;;5076828;28;20836;-69
2021/07/07 09:19:42;;;;;;;3.80;2.50;;;19.80;99.90;;;;;;5076679;28;20451;-69
2021/07/07 09:22:11;;;;;;;2.60;2.40;;;19.80;99.90;;;;;;5077599;28;20494;-69
2021/07/07 09:24:39;;;;;;;5.03;3.00;;;19.80;99.90;;;;;;5076732;28;20458;-69
2021/07/07 09:27:07;;;;;;;3.17;2.50;;;19.80;99.90;;;;;;5076395;28;20465;-70
2021/07/07 09:29:35;;;;;;;4.50;2.80;;;19.80;99.90;;;;;;5077306;28;20488;-69
2021/07/07 09:32:12;;;;;;;4.27;2.97;;;19.70;99.90;;;;;;5077590;28;20457;-69
2021/07/07 09:34:41;;;;;;;3.90;3.50;;;19.60;99.90;;;;;;5077226;28;20492;-69
2021/07/07 09:37:09;;;;;;;7.37;3.23;;;19.50;99.90;;;;;;5077076;28;20833;-70
2021/07/07 09:39:36;;;;;;;4.83;3.63;;;19.40;99.90;;;;;;5080956;28;20460;-69
2021/07/07 09:42:03;;;;;;;5.60;4.00;;;19.30;99.90;;;;;;5076883;28;20922;-69
2021/07/07 09:44:32;;;;;;;6.50;3.60;;;19.30;99.90;;;;;;5079155;28;20461;-70
2021/07/07 09:46:59;;;;;;;4.67;4.00;;;19.10;99.90;;;;;;5078746;28;20494;-70
2021/07/07 09:49:27;;;;;;;6.17;4.20;;;18.90;99.90;;;;;;5078343;28;20513;-70
2021/07/07 09:51:55;;;;;;;5.70;4.87;;;18.70;99.90;;;;;;5079275;28;20527;-70
2021/07/07 09:54:22;;;;;;;4.73;4.33;;;18.50;99.90;;;;;;5078605;28;20466;-70
2021/07/07 09:56:49;;;;;;;4.90;3.70;;;18.40;99.90;;;;;;5075990;28;20477;-69
2021/07/07 09:59:15;;;;;;;4.60;3.33;;;18.20;99.90;;;;;;5076074;28;20458;-71
2021/07/07 10:01:44;;;;;;;4.00;2.60;;;18.10;99.90;;;;;;5075537;28;20477;-70
2021/07/07 10:04:13;;;;;;;5.93;2.90;;;17.90;99.90;;;;;;5074752;28;20458;-70
2021/07/07 10:06:40;;;;;;;6.60;3.00;;;17.80;99.90;;;;;;5075210;28;20457;-70
2021/07/07 10:09:08;;;;;;;5.30;2.90;;;17.70;99.90;;;;;;5075018;28;20482;-70
2021/07/07 10:11:37;;;;;;;5.13;2.80;;;17.60;99.90;;;;;;5075104;28;20468;-70
2021/07/07 10:14:07;;;;;;;4.77;2.90;;;17.60;99.90;;;;;;5074631;28;20454;-70
2021/07/07 10:16:34;;;;;;;3.90;2.83;;;17.60;99.90;;;;;;5079332;28;20458;-70
2021/07/07 10:19:01;;;;;;;2.87;2.67;;;17.60;99.90;;;;;;5081961;28;20453;-70
2021/07/07 10:21:27;;;;;;;2.87;2.63;;;17.70;99.90;;;;;;5081823;28;20812;-70
2021/07/07 10:23:55;;;;;;;3.30;2.57;;;17.80;99.90;;;;;;5082829;28;20458;-70
2021/07/07 10:26:24;;;;;;;3.93;2.13;;;17.90;99.90;;;;;;5081562;28;20449;-70
2021/07/07 10:28:51;;;;;;;4.13;2.27;;;18.00;99.90;;;;;;5081301;28;20469;-69
2021/07/07 10:31:20;;;;;;;2.50;2.17;;;18.10;99.90;;;;;;5081480;28;20468;-68
2021/07/07 10:33:47;;;;;;;2.20;2.00;;;18.30;99.90;;;;;;5081034;28;20505;-69
2021/07/07 10:36:23;;;;;;;2.37;2.17;;;18.40;99.90;;;;;;5081388;28;20453;-69
2021/07/07 10:38:55;;;;;;;2.50;2.30;;;18.60;99.90;;;;;;5081532;28;20452;-70
2021/07/07 10:41:50;;;;;;;3.87;2.03;;;18.60;99.90;;;;;;5081420;28;20465;-69
2021/07/07 10:44:45;;;;;;;2.57;2.17;;;18.70;99.90;;;;;;5081335;28;20447;-69
2021/07/07 10:47:13;;;;;;;3.87;2.50;;;18.70;99.90;;;;;;5034757;28;20465;-70
2021/07/07 10:49:41;;;;;;;2.47;2.27;;;18.80;99.90;;;;;;5080595;28;20526;-70
2021/07/07 10:52:10;;;;;;;2.87;2.50;;;18.90;99.90;;;;;;5080843;28;20454;-69
2021/07/07 10:54:38;;;;;;;2.50;2.30;;;19.00;99.90;;;;;;5081647;28;20648;-70
2021/07/07 10:57:08;;;;;;;3.63;2.47;;;19.10;99.90;;;;;;5081260;28;20779;-70
2021/07/07 10:59:36;;;;;;;3.07;2.50;;;19.20;99.90;;;;;;5080955;28;20461;-69
2021/07/07 11:02:07;;;;;;;8.60;1.97;;;19.40;99.90;;;;;;5081119;28;20464;-69
2021/07/07 11:04:35;;;;;;;3.80;1.50;;;19.40;99.90;;;;;;5081124;28;20453;-68
2021/07/07 11:07:34;;;;;;;3.40;1.90;;;19.50;99.90;;;;;;5080387;28;20926;-68
2021/07/07 11:10:03;;;;;;;2.53;1.30;;;19.50;99.90;;;;;;5082299;28;20789;-68
2021/07/07 11:13:09;;;;;;;2.07;1.77;;;19.70;99.90;;;;;;5081171;28;20524;-68
2021/07/07 11:15:39;;;;;;;4.80;2.10;;;19.80;99.90;;;;;;5080394;28;20457;-68
2021/07/07 11:18:17;;;;;;;3.30;2.10;;;20.00;99.90;;;;;;5080811;28;20454;-68
2021/07/07 11:20:44;;;;;;;3.70;2.27;;;20.10;99.90;;;;;;5080902;28;20772;-68
2021/07/07 11:23:12;;;;;;;2.10;1.77;;;20.30;99.90;;;;;;5080787;28;20457;-70
2021/07/07 11:25:40;;;;;;;2.30;1.73;;;20.40;99.90;;;;;;5080488;28;20791;-68
2021/07/07 11:28:11;;;;;;;3.43;1.73;;;20.50;99.90;;;;;;5077704;28;20503;-68
2021/07/07 11:30:38;;;;;;;2.77;2.50;;;20.60;99.90;;;;;;5077221;28;20586;-68
2021/07/07 11:33:06;;;;;;;2.70;1.63;;;20.90;99.90;;;;;;5077226;28;20454;-68
2021/07/07 11:35:34;;;;;;;3.20;1.80;;;21.20;99.90;;;;;;5077236;28;20461;-68
2021/07/07 11:38:03;;;;;;;2.63;1.50;;;21.50;99.90;;;;;;5077652;28;20469;-69
2021/07/07 11:40:31;;;;;;;2.57;1.30;;;21.80;82.00;;;;;;5078195;28;20461;-68
2021/07/07 11:43:00;;;;;;;1.80;1.40;;;22.10;35.40;;;;;;5077735;28;20465;-68
2021/07/07 11:45:31;;;;;;;1.97;1.40;;;22.30;62.70;;;;;;5077739;28;20491;-71
2021/07/07 11:48:03;;;;;;;2.43;1.33;;;22.40;1.00;;;;;;5077461;28;20478;-69
2021/07/07 11:50:31;;;;;;;3.50;1.40;;;22.30;1.00;;;;;;5077535;28;20558;-69
2021/07/07 11:53:00;;;;;;;2.13;1.50;;;22.20;1.00;;;;;;5077255;28;20454;-69
2021/07/07 11:55:50;;;;;;;1.50;1.40;;;22.20;12.50;;;;;;5077234;28;20466;-69
2021/07/07 11:58:23;;;;;;;3.30;1.37;;;22.30;23.60;;;;;;5076995;28;20568;-69
2021/07/07 12:00:53;;;;;;;1.87;1.67;;;22.30;1.00;;;;;;5077105;28;20485;-69
2021/07/07 12:03:21;;;;;;;2.30;1.67;;;22.20;1.00;;;;;;5077163;28;20507;-69
2021/07/07 12:05:50;;;;;;;2.10;1.90;;;22.20;1.00;;;;;;5077699;28;20458;-69
2021/07/07 12:08:20;;;;;;;1.73;1.50;;;22.20;6.30;;;;;;5077767;28;20571;-69
2021/07/07 12:10:47;;;;;;;4.27;2.00;;;22.30;11.60;;;;;;5076631;28;20544;-69
2021/07/07 12:13:23;;;;;;;3.40;1.83;;;22.60;16.20;;;;;;5076722;28;20501;-69
2021/07/07 12:15:51;;;;;;;2.87;1.80;;;23.00;23.30;;;;;;5076760;28;20822;-69
2021/07/07 12:18:28;;;;;;;3.17;1.63;;;23.30;5.90;;;;;;5076366;28;20462;-69
2021/07/07 12:20:56;;;;;;;3.03;2.03;;;23.80;19.70;;;;;;5076073;28;20450;-68
2021/07/07 12:23:23;;;;;;;2.83;1.93;;;24.30;16.10;;;;;;5076127;28;20458;-68
2021/07/07 12:26:01;;;;;;;2.90;1.77;;;25.10;1.00;;;;;;5076543;28;20462;-69
2021/07/07 12:28:29;;;;;;;2.93;1.37;;;26.10;1.00;;;;;;5076368;28;20515;-68
2021/07/07 12:30:58;;;;;;;1.90;1.37;;;27.10;1.00;;;;;;5076061;28;20493;-69
2021/07/07 12:33:25;;;;;;;3.10;2.20;;;27.90;1.00;;;;;;5076254;28;20464;-68
2021/07/07 12:35:52;;;;;;;3.00;2.20;;;28.20;99.90;;;;;;5075994;28;20519;-68
2021/07/07 12:38:19;;;;;;;3.00;1.53;;;28.10;99.90;;;;;;5075804;28;20465;-68
2021/07/07 12:40:54;;;;;;;2.00;1.80;;;28.10;99.90;;;;;;5075781;28;20469;-68
2021/07/07 12:43:27;;;;;;;3.83;1.80;;;28.00;99.90;;;;;;5076186;28;20750;-68
2021/07/07 12:46:04;;;;;;;2.13;1.80;;;28.00;99.90;;;;;;5075949;28;20457;-68
2021/07/07 12:48:31;;;;;;;2.17;1.40;;;28.00;99.90;;;;;;5075649;28;20573;-68
2021/07/07 12:50:58;;;;;;;2.30;1.47;;;28.00;99.90;;;;;;5075529;28;20985;-68
2021/07/07 12:53:35;;;;;;;3.93;1.40;;;28.00;99.90;;;;;;5075727;28;20464;-68